sensor_id;sensor_type;location;lat;lon;timestamp;P1;durP1;ratioP1;P2;durP2;ratioP2
11481;SDS011;5797;51.662;6.748;2023-05-16T00:01:53;1.67;;;1.53;;
11481;SDS011;5797;51.662;6.748;2023-05-16T00:04:21;7.30;;;2.20;;
11481;SDS011;5797;51.662;6.748;2023-05-16T00:06:50;2.90;;;1.77;;
11481;SDS011;5797;51.662;6.748;2023-05-16T00:09:20;3.37;;;1.90;;
11481;SDS011;5797;51.662;6.748;2023-05-16T00:11:49;4.23;;;1.87;;
11481;SDS011;5797;51.662;6.748;2023-05-16T00:14:17;5.00;;;1.83;;
11481;SDS011;5797;51.662;6.748;2023-05-16T00:16:46;5.53;;;2.10;;
11481;SDS011;5797;51.662;6.748;2023-05-16T00:19:15;3.30;;;2.20;;
11481;SDS011;5797;51.662;6.748;2023-05-16T00:21:43;7.10;;;2.43;;
11481;SDS011;5797;51.662;6.748;2023-05-16T00:24:12;6.50;;;2.40;;
11481;SDS011;5797;51.662;6.748;2023-05-16T00:26:41;3.53;;;2.33;;
11481;SDS011;5797;51.662;6.748;2023-05-16T00:29:10;6.33;;;2.20;;
11481;SDS011;5797;51.662;6.748;2023-05-16T00:31:38;5.10;;;2.50;;
11481;SDS011;5797;51.662;6.748;2023-05-16T00:34:07;6.83;;;2.63;;
11481;SDS011;5797;51.662;6.748;2023-05-16T00:36:35;6.30;;;2.73;;
11481;SDS011;5797;51.662;6.748;2023-05-16T00:39:03;3.53;;;2.30;;
11481;SDS011;5797;51.662;6.748;2023-05-16T00:41:32;4.97;;;2.30;;
11481;SDS011;5797;51.662;6.748;2023-05-16T00:44:02;11.57;;;2.37;;
11481;SDS011;5797;51.662;6.748;2023-05-16T00:46:31;5.63;;;2.63;;
11481;SDS011;5797;51.662;6.748;2023-05-16T00:48:59;3.97;;;2.27;;
11481;SDS011;5797;51.662;6.748;2023-05-16T00:51:28;6.70;;;2.00;;
11481;SDS011;5797;51.662;6.748;2023-05-16T00:53:56;11.03;;;2.53;;
11481;SDS011;5797;51.662;6.748;2023-05-16T00:56:25;10.93;;;2.47;;
11481;SDS011;5797;51.662;6.748;2023-05-16T00:58:53;8.50;;;2.53;;
11481;SDS011;5797;51.662;6.748;2023-05-16T01:01:24;12.70;;;3.23;;
11481;SDS011;5797;51.662;6.748;2023-05-16T01:03:53;8.90;;;2.10;;
11481;SDS011;5797;51.662;6.748;2023-05-16T01:06:21;8.97;;;2.63;;
11481;SDS011;5797;51.662;6.748;2023-05-16T01:08:50;7.57;;;2.53;;
11481;SDS011;5797;51.662;6.748;2023-05-16T01:11:20;4.20;;;2.23;;
11481;SDS011;5797;51.662;6.748;2023-05-16T01:13:52;7.00;;;2.60;;
11481;SDS011;5797;51.662;6.748;2023-05-16T01:16:31;6.63;;;2.70;;
11481;SDS011;5797;51.662;6.748;2023-05-16T01:19:06;6.00;;;2.60;;
11481;SDS011;5797;51.662;6.748;2023-05-16T01:21:47;11.23;;;2.63;;
11481;SDS011;5797;51.662;6.748;2023-05-16T01:24:21;14.63;;;3.20;;
11481;SDS011;5797;51.662;6.748;2023-05-16T01:26:53;9.10;;;2.43;;
11481;SDS011;5797;51.662;6.748;2023-05-16T01:29:23;10.97;;;2.83;;
11481;SDS011;5797;51.662;6.748;2023-05-16T01:31:51;8.97;;;2.87;;
11481;SDS011;5797;51.662;6.748;2023-05-16T01:34:20;10.57;;;2.67;;
11481;SDS011;5797;51.662;6.748;2023-05-16T01:36:50;11.13;;;2.83;;
11481;SDS011;5797;51.662;6.748;2023-05-16T01:39:24;15.03;;;2.90;;
11481;SDS011;5797;51.662;6.748;2023-05-16T01:41:59;11.23;;;3.23;;
11481;SDS011;5797;51.662;6.748;2023-05-16T01:44:31;7.17;;;2.73;;
11481;SDS011;5797;51.662;6.748;2023-05-16T01:47:02;14.00;;;3.33;;
11481;SDS011;5797;51.662;6.748;2023-05-16T01:49:34;14.67;;;3.33;;
11481;SDS011;5797;51.662;6.748;2023-05-16T01:52:07;13.33;;;3.10;;
11481;SDS011;5797;51.662;6.748;2023-05-16T01:54:37;12.83;;;2.77;;
11481;SDS011;5797;51.662;6.748;2023-05-16T01:57:08;8.27;;;2.73;;
11481;SDS011;5797;51.662;6.748;2023-05-16T01:59:37;11.23;;;3.03;;
11481;SDS011;5797;51.662;6.748;2023-05-16T02:02:06;9.77;;;2.97;;
11481;SDS011;5797;51.662;6.748;2023-05-16T02:04:36;11.20;;;3.27;;
11481;SDS011;5797;51.662;6.748;2023-05-16T02:07:05;9.37;;;3.03;;
11481;SDS011;5797;51.662;6.748;2023-05-16T02:09:33;7.53;;;2.37;;
11481;SDS011;5797;51.662;6.748;2023-05-16T02:12:01;13.47;;;3.17;;
11481;SDS011;5797;51.662;6.748;2023-05-16T02:14:31;12.63;;;3.00;;
11481;SDS011;5797;51.662;6.748;2023-05-16T02:17:00;9.90;;;3.03;;
11481;SDS011;5797;51.662;6.748;2023-05-16T02:19:28;12.60;;;2.57;;
11481;SDS011;5797;51.662;6.748;2023-05-16T02:21:56;10.30;;;2.87;;
11481;SDS011;5797;51.662;6.748;2023-05-16T02:24:25;7.97;;;2.90;;
11481;SDS011;5797;51.662;6.748;2023-05-16T02:26:54;8.07;;;2.67;;
11481;SDS011;5797;51.662;6.748;2023-05-16T02:29:23;5.83;;;2.43;;
11481;SDS011;5797;51.662;6.748;2023-05-16T02:31:53;6.83;;;2.80;;
11481;SDS011;5797;51.662;6.748;2023-05-16T02:34:21;8.53;;;2.90;;
11481;SDS011;5797;51.662;6.748;2023-05-16T02:36:50;13.40;;;2.90;;
11481;SDS011;5797;51.662;6.748;2023-05-16T02:39:18;8.87;;;2.33;;
11481;SDS011;5797;51.662;6.748;2023-05-16T02:41:50;8.40;;;2.40;;
11481;SDS011;5797;51.662;6.748;2023-05-16T02:44:18;9.97;;;2.53;;
11481;SDS011;5797;51.662;6.748;2023-05-16T02:46:46;7.70;;;2.60;;
11481;SDS011;5797;51.662;6.748;2023-05-16T02:49:16;13.87;;;2.53;;
11481;SDS011;5797;51.662;6.748;2023-05-16T02:51:45;12.47;;;2.67;;
11481;SDS011;5797;51.662;6.748;2023-05-16T02:54:13;7.63;;;2.23;;
11481;SDS011;5797;51.662;6.748;2023-05-16T02:56:42;12.30;;;2.87;;
11481;SDS011;5797;51.662;6.748;2023-05-16T02:59:11;5.30;;;2.23;;
11481;SDS011;5797;51.662;6.748;2023-05-16T03:01:39;8.53;;;2.50;;
11481;SDS011;5797;51.662;6.748;2023-05-16T03:04:08;11.17;;;2.47;;
11481;SDS011;5797;51.662;6.748;2023-05-16T03:06:37;12.37;;;2.40;;
11481;SDS011;5797;51.662;6.748;2023-05-16T03:09:06;13.83;;;3.17;;
11481;SDS011;5797;51.662;6.748;2023-05-16T03:11:34;7.67;;;2.10;;
11481;SDS011;5797;51.662;6.748;2023-05-16T03:14:03;10.70;;;2.50;;
11481;SDS011;5797;51.662;6.748;2023-05-16T03:16:31;10.83;;;2.60;;
11481;SDS011;5797;51.662;6.748;2023-05-16T03:19:00;7.93;;;2.40;;
11481;SDS011;5797;51.662;6.748;2023-05-16T03:21:29;7.20;;;1.83;;
11481;SDS011;5797;51.662;6.748;2023-05-16T03:23:58;5.73;;;1.63;;
11481;SDS011;5797;51.662;6.748;2023-05-16T03:26:27;15.77;;;2.60;;
11481;SDS011;5797;51.662;6.748;2023-05-16T03:28:55;7.93;;;2.07;;
11481;SDS011;5797;51.662;6.748;2023-05-16T03:31:23;6.20;;;1.93;;
11481;SDS011;5797;51.662;6.748;2023-05-16T03:33:52;12.97;;;3.13;;
11481;SDS011;5797;51.662;6.748;2023-05-16T03:36:20;10.70;;;2.03;;
11481;SDS011;5797;51.662;6.748;2023-05-16T03:38:50;18.20;;;2.40;;
11481;SDS011;5797;51.662;6.748;2023-05-16T03:41:21;6.73;;;1.87;;
11481;SDS011;5797;51.662;6.748;2023-05-16T03:43:50;15.40;;;2.20;;
11481;SDS011;5797;51.662;6.748;2023-05-16T03:46:18;6.37;;;2.20;;
11481;SDS011;5797;51.662;6.748;2023-05-16T03:48:46;13.03;;;2.43;;
11481;SDS011;5797;51.662;6.748;2023-05-16T03:51:15;11.23;;;2.87;;
11481;SDS011;5797;51.662;6.748;2023-05-16T03:53:43;8.27;;;2.20;;
11481;SDS011;5797;51.662;6.748;2023-05-16T03:56:11;12.40;;;2.77;;
11481;SDS011;5797;51.662;6.748;2023-05-16T03:58:41;13.33;;;2.37;;
11481;SDS011;5797;51.662;6.748;2023-05-16T04:01:10;7.73;;;2.20;;
11481;SDS011;5797;51.662;6.748;2023-05-16T04:03:38;7.70;;;2.63;;
11481;SDS011;5797;51.662;6.748;2023-05-16T04:06:06;6.60;;;1.80;;
11481;SDS011;5797;51.662;6.748;2023-05-16T04:08:37;10.57;;;2.40;;
11481;SDS011;5797;51.662;6.748;2023-05-16T04:11:07;10.67;;;2.20;;
11481;SDS011;5797;51.662;6.748;2023-05-16T04:13:35;11.03;;;2.70;;
11481;SDS011;5797;51.662;6.748;2023-05-16T04:16:06;7.67;;;2.40;;
11481;SDS011;5797;51.662;6.748;2023-05-16T04:18:34;11.93;;;2.53;;
11481;SDS011;5797;51.662;6.748;2023-05-16T04:21:03;8.13;;;2.90;;
11481;SDS011;5797;51.662;6.748;2023-05-16T04:23:32;15.33;;;3.23;;
11481;SDS011;5797;51.662;6.748;2023-05-16T04:26:00;13.33;;;3.07;;
11481;SDS011;5797;51.662;6.748;2023-05-16T04:28:30;8.17;;;2.87;;
11481;SDS011;5797;51.662;6.748;2023-05-16T04:30:58;8.33;;;3.30;;
11481;SDS011;5797;51.662;6.748;2023-05-16T04:33:29;8.33;;;2.57;;
11481;SDS011;5797;51.662;6.748;2023-05-16T04:35:57;15.97;;;3.20;;
11481;SDS011;5797;51.662;6.748;2023-05-16T04:38:26;13.17;;;2.70;;
11481;SDS011;5797;51.662;6.748;2023-05-16T04:40:54;11.00;;;3.20;;
11481;SDS011;5797;51.662;6.748;2023-05-16T04:43:22;8.93;;;2.67;;
11481;SDS011;5797;51.662;6.748;2023-05-16T04:45:51;8.53;;;2.47;;
11481;SDS011;5797;51.662;6.748;2023-05-16T04:48:20;9.07;;;2.60;;
11481;SDS011;5797;51.662;6.748;2023-05-16T04:50:50;6.13;;;2.17;;
11481;SDS011;5797;51.662;6.748;2023-05-16T04:53:18;12.23;;;2.47;;
11481;SDS011;5797;51.662;6.748;2023-05-16T04:55:47;5.97;;;2.43;;
11481;SDS011;5797;51.662;6.748;2023-05-16T04:58:15;10.87;;;3.20;;
11481;SDS011;5797;51.662;6.748;2023-05-16T05:00:43;19.30;;;2.57;;
11481;SDS011;5797;51.662;6.748;2023-05-16T05:03:13;8.67;;;2.90;;
11481;SDS011;5797;51.662;6.748;2023-05-16T05:05:41;16.30;;;2.73;;
11481;SDS011;5797;51.662;6.748;2023-05-16T05:08:11;8.60;;;2.37;;
11481;SDS011;5797;51.662;6.748;2023-05-16T05:10:39;6.77;;;2.07;;
11481;SDS011;5797;51.662;6.748;2023-05-16T05:13:08;15.10;;;2.30;;
11481;SDS011;5797;51.662;6.748;2023-05-16T05:15:36;9.93;;;2.23;;
11481;SDS011;5797;51.662;6.748;2023-05-16T05:18:04;7.73;;;2.33;;
11481;SDS011;5797;51.662;6.748;2023-05-16T05:20:33;17.70;;;3.07;;
11481;SDS011;5797;51.662;6.748;2023-05-16T05:23:01;14.90;;;2.70;;
11481;SDS011;5797;51.662;6.748;2023-05-16T05:25:31;9.77;;;2.53;;
11481;SDS011;5797;51.662;6.748;2023-05-16T05:28:01;8.37;;;2.90;;
11481;SDS011;5797;51.662;6.748;2023-05-16T05:30:29;11.13;;;2.77;;
11481;SDS011;5797;51.662;6.748;2023-05-16T05:32:58;15.43;;;2.87;;
11481;SDS011;5797;51.662;6.748;2023-05-16T05:35:26;8.73;;;2.30;;
11481;SDS011;5797;51.662;6.748;2023-05-16T05:37:55;12.23;;;2.90;;
11481;SDS011;5797;51.662;6.748;2023-05-16T05:40:23;6.47;;;2.27;;
11481;SDS011;5797;51.662;6.748;2023-05-16T05:42:53;11.83;;;2.53;;
11481;SDS011;5797;51.662;6.748;2023-05-16T05:45:21;10.83;;;2.70;;
11481;SDS011;5797;51.662;6.748;2023-05-16T05:47:50;8.37;;;2.90;;
11481;SDS011;5797;51.662;6.748;2023-05-16T05:50:18;14.80;;;2.67;;
11481;SDS011;5797;51.662;6.748;2023-05-16T05:52:47;13.40;;;2.90;;
11481;SDS011;5797;51.662;6.748;2023-05-16T05:55:15;9.97;;;2.60;;
11481;SDS011;5797;51.662;6.748;2023-05-16T05:57:44;11.23;;;2.60;;
11481;SDS011;5797;51.662;6.748;2023-05-16T06:00:14;19.03;;;2.93;;
11481;SDS011;5797;51.662;6.748;2023-05-16T06:02:43;10.73;;;2.53;;
11481;SDS011;5797;51.662;6.748;2023-05-16T06:05:11;9.27;;;2.57;;
11481;SDS011;5797;51.662;6.748;2023-05-16T06:07:39;13.87;;;2.57;;
11481;SDS011;5797;51.662;6.748;2023-05-16T06:10:08;6.03;;;2.80;;
11481;SDS011;5797;51.662;6.748;2023-05-16T06:12:36;10.93;;;2.63;;
11481;SDS011;5797;51.662;6.748;2023-05-16T06:15:05;8.30;;;2.10;;
11481;SDS011;5797;51.662;6.748;2023-05-16T06:17:36;12.23;;;2.57;;
11481;SDS011;5797;51.662;6.748;2023-05-16T06:20:05;5.00;;;2.00;;
11481;SDS011;5797;51.662;6.748;2023-05-16T06:22:35;11.77;;;3.20;;
11481;SDS011;5797;51.662;6.748;2023-05-16T06:25:03;7.97;;;2.70;;
11481;SDS011;5797;51.662;6.748;2023-05-16T06:27:32;10.87;;;2.60;;
11481;SDS011;5797;51.662;6.748;2023-05-16T06:30:00;10.93;;;2.23;;
11481;SDS011;5797;51.662;6.748;2023-05-16T06:32:29;11.07;;;2.20;;
11481;SDS011;5797;51.662;6.748;2023-05-16T06:34:59;10.30;;;2.37;;
11481;SDS011;5797;51.662;6.748;2023-05-16T06:37:27;5.37;;;2.07;;
11481;SDS011;5797;51.662;6.748;2023-05-16T06:39:55;9.83;;;2.60;;
11481;SDS011;5797;51.662;6.748;2023-05-16T06:42:25;3.33;;;1.97;;
11481;SDS011;5797;51.662;6.748;2023-05-16T06:44:54;7.47;;;2.17;;
11481;SDS011;5797;51.662;6.748;2023-05-16T06:47:22;5.00;;;2.00;;
11481;SDS011;5797;51.662;6.748;2023-05-16T06:49:50;6.13;;;1.97;;
11481;SDS011;5797;51.662;6.748;2023-05-16T06:52:21;6.67;;;1.70;;
11481;SDS011;5797;51.662;6.748;2023-05-16T06:54:49;5.40;;;1.70;;
11481;SDS011;5797;51.662;6.748;2023-05-16T06:57:18;6.23;;;2.10;;
11481;SDS011;5797;51.662;6.748;2023-05-16T06:59:46;8.27;;;2.00;;
11481;SDS011;5797;51.662;6.748;2023-05-16T07:02:14;5.53;;;2.03;;
11481;SDS011;5797;51.662;6.748;2023-05-16T07:04:43;8.33;;;1.70;;
11481;SDS011;5797;51.662;6.748;2023-05-16T07:07:11;8.30;;;1.70;;
11481;SDS011;5797;51.662;6.748;2023-05-16T07:09:41;8.60;;;2.43;;
11481;SDS011;5797;51.662;6.748;2023-05-16T07:12:09;8.40;;;1.73;;
11481;SDS011;5797;51.662;6.748;2023-05-16T07:14:38;10.07;;;2.30;;
11481;SDS011;5797;51.662;6.748;2023-05-16T07:17:06;3.47;;;1.53;;
11481;SDS011;5797;51.662;6.748;2023-05-16T07:19:35;6.40;;;1.60;;
11481;SDS011;5797;51.662;6.748;2023-05-16T07:22:03;4.67;;;1.63;;
11481;SDS011;5797;51.662;6.748;2023-05-16T07:24:32;6.97;;;2.37;;
11481;SDS011;5797;51.662;6.748;2023-05-16T07:27:01;16.13;;;2.07;;
11481;SDS011;5797;51.662;6.748;2023-05-16T07:29:30;5.40;;;1.80;;
11481;SDS011;5797;51.662;6.748;2023-05-16T07:31:58;5.17;;;1.50;;
11481;SDS011;5797;51.662;6.748;2023-05-16T07:34:27;5.13;;;1.73;;
11481;SDS011;5797;51.662;6.748;2023-05-16T07:36:55;4.30;;;1.60;;
11481;SDS011;5797;51.662;6.748;2023-05-16T07:39:25;8.23;;;1.63;;
11481;SDS011;5797;51.662;6.748;2023-05-16T07:41:53;7.47;;;1.97;;
11481;SDS011;5797;51.662;6.748;2023-05-16T07:44:24;6.73;;;1.90;;
11481;SDS011;5797;51.662;6.748;2023-05-16T07:46:52;12.67;;;1.90;;
11481;SDS011;5797;51.662;6.748;2023-05-16T07:49:21;5.73;;;1.97;;
11481;SDS011;5797;51.662;6.748;2023-05-16T07:51:49;4.93;;;1.87;;
11481;SDS011;5797;51.662;6.748;2023-05-16T07:54:17;9.50;;;1.77;;
11481;SDS011;5797;51.662;6.748;2023-05-16T07:56:46;7.40;;;2.07;;
11481;SDS011;5797;51.662;6.748;2023-05-16T07:59:14;7.70;;;1.20;;
11481;SDS011;5797;51.662;6.748;2023-05-16T08:01:44;6.27;;;1.60;;
11481;SDS011;5797;51.662;6.748;2023-05-16T08:04:12;7.93;;;1.47;;
11481;SDS011;5797;51.662;6.748;2023-05-16T08:06:41;3.13;;;1.70;;
11481;SDS011;5797;51.662;6.748;2023-05-16T08:09:09;8.57;;;2.07;;
11481;SDS011;5797;51.662;6.748;2023-05-16T08:11:37;5.73;;;1.53;;
11481;SDS011;5797;51.662;6.748;2023-05-16T08:14:06;7.67;;;1.43;;
11481;SDS011;5797;51.662;6.748;2023-05-16T08:16:35;3.17;;;1.30;;
11481;SDS011;5797;51.662;6.748;2023-05-16T08:19:05;7.60;;;1.50;;
11481;SDS011;5797;51.662;6.748;2023-05-16T08:21:33;5.20;;;1.73;;
11481;SDS011;5797;51.662;6.748;2023-05-16T08:24:02;7.17;;;2.10;;
11481;SDS011;5797;51.662;6.748;2023-05-16T08:26:31;3.90;;;1.27;;
11481;SDS011;5797;51.662;6.748;2023-05-16T08:29:00;4.17;;;1.63;;
11481;SDS011;5797;51.662;6.748;2023-05-16T08:31:28;8.47;;;1.57;;
11481;SDS011;5797;51.662;6.748;2023-05-16T08:33:57;3.77;;;1.40;;
11481;SDS011;5797;51.662;6.748;2023-05-16T08:36:27;6.57;;;1.70;;
11481;SDS011;5797;51.662;6.748;2023-05-16T08:38:55;3.50;;;1.40;;
11481;SDS011;5797;51.662;6.748;2023-05-16T08:41:23;6.13;;;1.80;;
11481;SDS011;5797;51.662;6.748;2023-05-16T08:43:52;4.70;;;1.40;;
11481;SDS011;5797;51.662;6.748;2023-05-16T08:46:21;6.37;;;1.50;;
11481;SDS011;5797;51.662;6.748;2023-05-16T08:48:50;5.00;;;1.67;;
11481;SDS011;5797;51.662;6.748;2023-05-16T08:51:19;3.63;;;1.43;;
11481;SDS011;5797;51.662;6.748;2023-05-16T08:53:51;7.63;;;1.60;;
11481;SDS011;5797;51.662;6.748;2023-05-16T08:56:21;4.90;;;1.57;;
11481;SDS011;5797;51.662;6.748;2023-05-16T08:58:49;4.73;;;2.00;;
11481;SDS011;5797;51.662;6.748;2023-05-16T09:01:21;3.37;;;1.40;;
11481;SDS011;5797;51.662;6.748;2023-05-16T09:03:49;3.27;;;1.20;;
11481;SDS011;5797;51.662;6.748;2023-05-16T09:06:19;4.97;;;1.40;;
11481;SDS011;5797;51.662;6.748;2023-05-16T09:08:47;4.73;;;1.80;;
11481;SDS011;5797;51.662;6.748;2023-05-16T09:11:17;4.77;;;1.70;;
11481;SDS011;5797;51.662;6.748;2023-05-16T09:13:46;4.00;;;1.40;;
11481;SDS011;5797;51.662;6.748;2023-05-16T09:16:15;4.27;;;1.70;;
11481;SDS011;5797;51.662;6.748;2023-05-16T09:18:44;4.80;;;1.40;;
11481;SDS011;5797;51.662;6.748;2023-05-16T09:21:15;5.87;;;1.60;;
11481;SDS011;5797;51.662;6.748;2023-05-16T09:23:43;4.67;;;1.30;;
11481;SDS011;5797;51.662;6.748;2023-05-16T09:26:12;6.00;;;1.37;;
11481;SDS011;5797;51.662;6.748;2023-05-16T09:28:42;6.20;;;1.37;;
11481;SDS011;5797;51.662;6.748;2023-05-16T09:31:20;5.87;;;1.53;;
11481;SDS011;5797;51.662;6.748;2023-05-16T09:33:49;3.90;;;1.40;;
11481;SDS011;5797;51.662;6.748;2023-05-16T09:36:17;3.90;;;1.43;;
11481;SDS011;5797;51.662;6.748;2023-05-16T09:38:46;3.27;;;1.73;;
11481;SDS011;5797;51.662;6.748;2023-05-16T09:41:14;6.63;;;1.77;;
11481;SDS011;5797;51.662;6.748;2023-05-16T09:43:44;6.27;;;1.80;;
11481;SDS011;5797;51.662;6.748;2023-05-16T09:46:13;8.97;;;2.13;;
11481;SDS011;5797;51.662;6.748;2023-05-16T09:48:43;4.70;;;1.57;;
11481;SDS011;5797;51.662;6.748;2023-05-16T09:51:12;4.83;;;1.70;;
11481;SDS011;5797;51.662;6.748;2023-05-16T09:53:42;5.80;;;2.03;;
11481;SDS011;5797;51.662;6.748;2023-05-16T09:56:11;8.13;;;1.80;;
11481;SDS011;5797;51.662;6.748;2023-05-16T09:58:41;3.47;;;1.57;;
11481;SDS011;5797;51.662;6.748;2023-05-16T10:01:12;3.27;;;1.20;;
11481;SDS011;5797;51.662;6.748;2023-05-16T10:03:41;4.30;;;1.53;;
11481;SDS011;5797;51.662;6.748;2023-05-16T10:06:09;3.57;;;1.23;;
11481;SDS011;5797;51.662;6.748;2023-05-16T10:08:40;4.10;;;1.33;;
11481;SDS011;5797;51.662;6.748;2023-05-16T10:11:09;5.93;;;2.40;;
11481;SDS011;5797;51.662;6.748;2023-05-16T10:13:38;3.70;;;1.30;;
11481;SDS011;5797;51.662;6.748;2023-05-16T10:16:09;4.43;;;1.17;;
11481;SDS011;5797;51.662;6.748;2023-05-16T10:18:41;5.23;;;1.37;;
11481;SDS011;5797;51.662;6.748;2023-05-16T10:21:12;6.80;;;1.30;;
11481;SDS011;5797;51.662;6.748;2023-05-16T10:23:42;4.23;;;1.00;;
11481;SDS011;5797;51.662;6.748;2023-05-16T10:26:11;4.43;;;1.40;;
11481;SDS011;5797;51.662;6.748;2023-05-16T10:28:42;4.30;;;1.13;;
11481;SDS011;5797;51.662;6.748;2023-05-16T10:31:11;2.37;;;0.87;;
11481;SDS011;5797;51.662;6.748;2023-05-16T10:33:41;1.53;;;0.90;;
11481;SDS011;5797;51.662;6.748;2023-05-16T10:36:09;7.80;;;1.27;;
11481;SDS011;5797;51.662;6.748;2023-05-16T10:38:39;2.57;;;0.90;;
11481;SDS011;5797;51.662;6.748;2023-05-16T10:41:08;4.07;;;1.30;;
11481;SDS011;5797;51.662;6.748;2023-05-16T10:43:37;0.97;;;0.90;;
11481;SDS011;5797;51.662;6.748;2023-05-16T10:46:07;3.83;;;1.10;;
11481;SDS011;5797;51.662;6.748;2023-05-16T10:48:38;4.23;;;1.53;;
11481;SDS011;5797;51.662;6.748;2023-05-16T10:54:04;3.70;;;1.33;;
11481;SDS011;5797;51.662;6.748;2023-05-16T10:56:34;3.23;;;1.30;;
11481;SDS011;5797;51.662;6.748;2023-05-16T10:59:03;3.17;;;1.07;;
11481;SDS011;5797;51.662;6.748;2023-05-16T11:01:32;1.50;;;1.00;;
11481;SDS011;5797;51.662;6.748;2023-05-16T11:04:09;1.83;;;1.00;;
11481;SDS011;5797;51.662;6.748;2023-05-16T11:06:43;2.37;;;1.00;;
11481;SDS011;5797;51.662;6.748;2023-05-16T11:09:22;2.17;;;1.10;;
11481;SDS011;5797;51.662;6.748;2023-05-16T11:11:55;1.67;;;1.33;;
11481;SDS011;5797;51.662;6.748;2023-05-16T11:14:25;1.47;;;1.20;;
11481;SDS011;5797;51.662;6.748;2023-05-16T11:16:59;4.60;;;1.50;;
11481;SDS011;5797;51.662;6.748;2023-05-16T11:19:31;3.00;;;1.30;;
11481;SDS011;5797;51.662;6.748;2023-05-16T11:22:04;2.73;;;1.57;;
11481;SDS011;5797;51.662;6.748;2023-05-16T11:24:34;2.87;;;1.17;;
11481;SDS011;5797;51.662;6.748;2023-05-16T11:27:04;3.10;;;1.20;;
11481;SDS011;5797;51.662;6.748;2023-05-16T11:29:33;3.20;;;1.07;;
11481;SDS011;5797;51.662;6.748;2023-05-16T11:32:03;2.20;;;1.10;;
11481;SDS011;5797;51.662;6.748;2023-05-16T11:34:34;3.00;;;1.03;;
11481;SDS011;5797;51.662;6.748;2023-05-16T11:37:04;4.07;;;1.20;;
11481;SDS011;5797;51.662;6.748;2023-05-16T11:39:33;2.40;;;1.27;;
11481;SDS011;5797;51.662;6.748;2023-05-16T11:42:02;4.20;;;1.13;;
11481;SDS011;5797;51.662;6.748;2023-05-16T11:44:30;3.67;;;1.10;;
11481;SDS011;5797;51.662;6.748;2023-05-16T11:46:59;2.40;;;1.27;;
11481;SDS011;5797;51.662;6.748;2023-05-16T11:49:28;3.37;;;1.20;;
11481;SDS011;5797;51.662;6.748;2023-05-16T11:51:58;3.20;;;0.97;;
11481;SDS011;5797;51.662;6.748;2023-05-16T11:54:27;3.67;;;1.30;;
11481;SDS011;5797;51.662;6.748;2023-05-16T11:56:55;1.83;;;1.03;;
11481;SDS011;5797;51.662;6.748;2023-05-16T11:59:23;4.03;;;1.23;;
11481;SDS011;5797;51.662;6.748;2023-05-16T12:01:52;3.47;;;1.40;;
11481;SDS011;5797;51.662;6.748;2023-05-16T12:04:20;2.97;;;1.20;;
11481;SDS011;5797;51.662;6.748;2023-05-16T12:07:00;3.57;;;1.10;;
11481;SDS011;5797;51.662;6.748;2023-05-16T12:09:28;5.93;;;1.40;;
11481;SDS011;5797;51.662;6.748;2023-05-16T12:11:57;2.87;;;1.10;;
11481;SDS011;5797;51.662;6.748;2023-05-16T12:14:25;2.67;;;0.83;;
11481;SDS011;5797;51.662;6.748;2023-05-16T12:16:53;3.00;;;1.27;;
11481;SDS011;5797;51.662;6.748;2023-05-16T12:19:22;2.80;;;0.97;;
11481;SDS011;5797;51.662;6.748;2023-05-16T12:21:51;3.63;;;1.20;;
11481;SDS011;5797;51.662;6.748;2023-05-16T12:24:22;2.03;;;1.00;;
11481;SDS011;5797;51.662;6.748;2023-05-16T12:26:56;5.57;;;1.63;;
11481;SDS011;5797;51.662;6.748;2023-05-16T12:29:26;2.73;;;0.97;;
11481;SDS011;5797;51.662;6.748;2023-05-16T12:31:54;4.30;;;1.40;;
11481;SDS011;5797;51.662;6.748;2023-05-16T12:34:23;3.67;;;1.40;;
11481;SDS011;5797;51.662;6.748;2023-05-16T12:36:55;5.27;;;1.17;;
11481;SDS011;5797;51.662;6.748;2023-05-16T12:39:25;5.07;;;1.07;;
11481;SDS011;5797;51.662;6.748;2023-05-16T12:41:53;2.47;;;1.13;;
11481;SDS011;5797;51.662;6.748;2023-05-16T12:44:22;4.23;;;1.40;;
11481;SDS011;5797;51.662;6.748;2023-05-16T12:46:51;4.40;;;1.20;;
11481;SDS011;5797;51.662;6.748;2023-05-16T12:49:21;3.10;;;1.30;;
11481;SDS011;5797;51.662;6.748;2023-05-16T12:51:49;3.53;;;1.40;;
11481;SDS011;5797;51.662;6.748;2023-05-16T12:54:18;2.43;;;1.10;;
11481;SDS011;5797;51.662;6.748;2023-05-16T12:56:49;4.00;;;1.20;;
11481;SDS011;5797;51.662;6.748;2023-05-16T12:59:18;4.47;;;1.20;;
11481;SDS011;5797;51.662;6.748;2023-05-16T13:01:46;4.47;;;1.30;;
11481;SDS011;5797;51.662;6.748;2023-05-16T13:04:15;3.17;;;1.43;;
11481;SDS011;5797;51.662;6.748;2023-05-16T13:06:46;6.27;;;1.30;;
11481;SDS011;5797;51.662;6.748;2023-05-16T13:09:25;2.03;;;1.00;;
11481;SDS011;5797;51.662;6.748;2023-05-16T13:11:59;2.53;;;1.20;;
11481;SDS011;5797;51.662;6.748;2023-05-16T13:14:28;1.40;;;1.20;;
11481;SDS011;5797;51.662;6.748;2023-05-16T13:16:56;1.90;;;1.07;;
11481;SDS011;5797;51.662;6.748;2023-05-16T13:19:24;2.67;;;1.20;;
11481;SDS011;5797;51.662;6.748;2023-05-16T13:21:53;2.23;;;1.43;;
11481;SDS011;5797;51.662;6.748;2023-05-16T13:24:22;3.83;;;2.20;;
11481;SDS011;5797;51.662;6.748;2023-05-16T13:26:50;6.07;;;1.47;;
11481;SDS011;5797;51.662;6.748;2023-05-16T13:29:20;8.03;;;2.87;;
11481;SDS011;5797;51.662;6.748;2023-05-16T13:31:49;7.00;;;2.80;;
11481;SDS011;5797;51.662;6.748;2023-05-16T13:34:17;1.60;;;0.90;;
11481;SDS011;5797;51.662;6.748;2023-05-16T13:36:45;2.57;;;1.20;;
11481;SDS011;5797;51.662;6.748;2023-05-16T13:39:20;4.27;;;1.33;;
11481;SDS011;5797;51.662;6.748;2023-05-16T13:41:49;3.63;;;1.30;;
11481;SDS011;5797;51.662;6.748;2023-05-16T13:44:18;4.43;;;1.60;;
11481;SDS011;5797;51.662;6.748;2023-05-16T13:46:48;4.13;;;1.60;;
11481;SDS011;5797;51.662;6.748;2023-05-16T13:49:17;2.97;;;1.27;;
11481;SDS011;5797;51.662;6.748;2023-05-16T13:51:45;3.70;;;1.13;;
11481;SDS011;5797;51.662;6.748;2023-05-16T13:54:14;3.63;;;1.60;;
11481;SDS011;5797;51.662;6.748;2023-05-16T13:56:43;2.17;;;1.20;;
11481;SDS011;5797;51.662;6.748;2023-05-16T13:59:11;4.10;;;1.60;;
11481;SDS011;5797;51.662;6.748;2023-05-16T14:01:46;3.83;;;1.57;;
11481;SDS011;5797;51.662;6.748;2023-05-16T14:04:16;6.27;;;2.00;;
11481;SDS011;5797;51.662;6.748;2023-05-16T14:06:44;4.20;;;1.40;;
11481;SDS011;5797;51.662;6.748;2023-05-16T14:09:13;3.83;;;1.57;;
11481;SDS011;5797;51.662;6.748;2023-05-16T14:11:41;3.67;;;1.50;;
11481;SDS011;5797;51.662;6.748;2023-05-16T14:14:10;2.93;;;1.47;;
11481;SDS011;5797;51.662;6.748;2023-05-16T14:16:38;4.53;;;1.70;;
11481;SDS011;5797;51.662;6.748;2023-05-16T14:19:10;4.67;;;1.50;;
11481;SDS011;5797;51.662;6.748;2023-05-16T14:21:42;4.50;;;1.63;;
11481;SDS011;5797;51.662;6.748;2023-05-16T14:24:11;5.27;;;1.30;;
11481;SDS011;5797;51.662;6.748;2023-05-16T14:26:39;3.53;;;1.30;;
11481;SDS011;5797;51.662;6.748;2023-05-16T14:29:07;3.70;;;2.47;;
11481;SDS011;5797;51.662;6.748;2023-05-16T14:31:36;3.53;;;1.37;;
11481;SDS011;5797;51.662;6.748;2023-05-16T14:34:04;3.50;;;1.37;;
11481;SDS011;5797;51.662;6.748;2023-05-16T14:36:33;5.43;;;1.53;;
11481;SDS011;5797;51.662;6.748;2023-05-16T14:39:03;4.40;;;1.70;;
11481;SDS011;5797;51.662;6.748;2023-05-16T14:41:31;2.23;;;1.43;;
11481;SDS011;5797;51.662;6.748;2023-05-16T14:43:59;3.97;;;1.63;;
11481;SDS011;5797;51.662;6.748;2023-05-16T14:46:27;1.70;;;1.37;;
11481;SDS011;5797;51.662;6.748;2023-05-16T14:48:56;2.57;;;1.90;;
11481;SDS011;5797;51.662;6.748;2023-05-16T14:51:24;3.47;;;1.57;;
11481;SDS011;5797;51.662;6.748;2023-05-16T14:53:53;4.27;;;1.93;;
11481;SDS011;5797;51.662;6.748;2023-05-16T14:56:22;4.40;;;1.67;;
11481;SDS011;5797;51.662;6.748;2023-05-16T14:58:52;2.70;;;1.40;;
11481;SDS011;5797;51.662;6.748;2023-05-16T15:01:20;4.50;;;1.57;;
11481;SDS011;5797;51.662;6.748;2023-05-16T15:03:49;5.77;;;1.67;;
11481;SDS011;5797;51.662;6.748;2023-05-16T15:06:22;3.33;;;1.77;;
11481;SDS011;5797;51.662;6.748;2023-05-16T15:08:50;8.03;;;1.97;;
11481;SDS011;5797;51.662;6.748;2023-05-16T15:11:19;5.83;;;1.37;;
11481;SDS011;5797;51.662;6.748;2023-05-16T15:13:49;5.07;;;1.73;;